createdAt,value
2018-02-09T00:00:41.489Z,160.43
2018-02-09T00:03:07.816Z,156.30
2018-02-09T00:05:34.103Z,156.73
2018-02-09T00:08:00.394Z,154.43
2018-02-09T00:10:26.649Z,161.53
2018-02-09T00:12:52.927Z,149.97
2018-02-09T00:15:19.235Z,146.80
2018-02-09T00:17:45.500Z,159.03
2018-02-09T00:20:11.798Z,155.37
2018-02-09T00:22:50.522Z,156.27
2018-02-09T00:25:16.816Z,150.70
2018-02-09T00:27:43.078Z,144.40
2018-02-09T00:30:10.100Z,142.90
2018-02-09T00:32:36.402Z,141.47
2018-02-09T00:35:02.701Z,155.87
2018-02-09T00:37:29.012Z,141.40
2018-02-09T00:39:55.284Z,142.00
2018-02-09T00:42:21.554Z,139.10
2018-02-09T00:44:47.831Z,142.27
2018-02-09T00:47:14.099Z,154.20
2018-02-09T00:49:41.135Z,145.73
2018-02-09T00:52:08.166Z,135.43
2018-02-09T00:54:35.196Z,149.37
2018-02-09T00:57:01.509Z,141.93
2018-02-09T00:59:28.525Z,158.20
2018-02-09T01:01:54.821Z,139.37
2018-02-09T01:04:21.098Z,141.57
2018-02-09T01:06:51.578Z,141.80
2018-02-09T01:09:17.866Z,157.70
2018-02-09T01:11:44.143Z,138.83
2018-02-09T01:14:10.455Z,146.77
2018-02-09T01:16:36.714Z,149.07
2018-02-09T01:19:02.983Z,145.50
2018-02-09T01:21:29.288Z,147.83
2018-02-09T01:23:56.323Z,154.50
2018-02-09T01:26:23.379Z,147.27
2018-02-09T01:28:49.647Z,157.50
2018-02-09T01:31:15.949Z,148.47
2018-02-09T01:33:42.243Z,153.37
2018-02-09T01:36:08.523Z,128.50
2018-02-09T01:38:34.847Z,157.67
2018-02-09T01:41:01.120Z,145.50
2018-02-09T01:43:27.390Z,139.20
2018-02-09T01:45:53.682Z,148.63
2018-02-09T01:48:20.709Z,154.47
2018-02-09T01:50:47.747Z,156.00
2018-02-09T01:53:14.019Z,147.57
2018-02-09T01:55:40.285Z,136.37
2018-02-09T01:58:06.571Z,151.67
2018-02-09T02:00:32.834Z,126.53
2018-02-09T02:03:01.230Z,143.70
2018-02-09T02:05:27.519Z,150.73
2018-02-09T02:07:53.788Z,139.90
2018-02-09T02:10:20.821Z,139.13
2018-02-09T02:12:47.841Z,138.20
2018-02-09T02:15:14.130Z,137.67
2018-02-09T02:17:40.426Z,152.80
2018-02-09T02:20:06.731Z,160.43
2018-02-09T02:22:33.004Z,134.30
2018-02-09T02:24:59.309Z,155.77
2018-02-09T02:27:25.597Z,144.53
2018-02-09T02:29:51.898Z,149.60
2018-02-09T02:32:18.182Z,148.23
2018-02-09T02:34:45.210Z,151.20
2018-02-09T02:37:12.242Z,140.17
2018-02-09T02:39:39.253Z,142.73
2018-02-09T02:42:05.555Z,146.70
2018-02-09T02:44:31.847Z,163.07
2018-02-09T02:46:58.160Z,156.27
2018-02-09T02:49:25.231Z,154.93
2018-02-09T02:51:51.512Z,130.37
2018-02-09T02:54:17.871Z,144.93
2018-02-09T02:56:44.891Z,150.20
2018-02-09T02:59:11.152Z,140.40
2018-02-09T03:01:37.430Z,167.77
2018-02-09T03:04:03.703Z,149.47
2018-02-09T03:06:30.024Z,141.27
2018-02-09T03:08:56.303Z,149.03
2018-02-09T03:11:23.307Z,142.47
2018-02-09T03:13:49.639Z,138.10
2018-02-09T03:16:16.674Z,144.37
2018-02-09T03:18:43.709Z,147.10
2018-02-09T03:21:10.732Z,149.93
2018-02-09T03:23:37.738Z,148.83
2018-02-09T03:26:04.060Z,136.37
2018-02-09T03:28:30.334Z,133.20
2018-02-09T03:30:56.673Z,134.53
2018-02-09T03:33:22.959Z,143.90
2018-02-09T03:35:49.206Z,145.37
2018-02-09T03:38:15.507Z,133.73
2018-02-09T03:40:41.766Z,145.90
2018-02-09T03:43:08.075Z,150.67
2018-02-09T03:45:34.345Z,137.70
2018-02-09T03:48:00.606Z,139.43
2018-02-09T03:50:26.920Z,131.93
2018-02-09T03:52:53.223Z,143.83
2018-02-09T03:55:19.514Z,140.23
2018-02-09T03:57:45.810Z,139.57
2018-02-09T04:00:12.090Z,136.27
2018-02-09T04:02:39.117Z,127.10
2018-02-09T04:05:05.375Z,138.10
2018-02-09T04:07:31.687Z,137.87
2018-02-09T04:09:57.961Z,143.43
2018-02-09T04:12:24.235Z,145.63
2018-02-09T04:14:50.522Z,137.93
2018-02-09T04:17:16.786Z,147.10
2018-02-09T04:19:43.097Z,136.63
2018-02-09T04:22:09.369Z,126.40
2018-02-09T04:24:35.659Z,133.03
2018-02-09T04:27:03.079Z,139.47
2018-02-09T04:29:29.351Z,146.43
2018-02-09T04:31:55.651Z,152.50
2018-02-09T04:34:21.925Z,144.90
2018-02-09T04:36:48.186Z,140.33
2018-02-09T04:39:14.485Z,143.63
2018-02-09T04:41:40.753Z,150.97
2018-02-09T04:44:07.068Z,136.47
2018-02-09T04:46:33.335Z,145.73
2018-02-09T04:49:00.339Z,137.60
2018-02-09T04:51:26.633Z,127.43
2018-02-09T04:53:52.890Z,132.33
2018-02-09T04:56:19.925Z,127.23
2018-02-09T04:58:46.938Z,130.67
2018-02-09T05:01:13.242Z,120.33
2018-02-09T05:03:39.542Z,132.70
2018-02-09T05:06:05.807Z,167.33
2018-02-09T05:08:32.852Z,131.77
2018-02-09T05:10:59.121Z,131.63
2018-02-09T05:13:25.408Z,135.50
2018-02-09T05:15:51.707Z,148.00
2018-02-09T05:18:17.970Z,140.07
2018-02-09T05:20:44.269Z,145.27
2018-02-09T05:23:10.542Z,141.73
2018-02-09T05:25:36.814Z,141.17
2018-02-09T05:28:03.135Z,142.03
2018-02-09T05:30:29.406Z,142.33
2018-02-09T05:32:55.700Z,144.80
2018-02-09T05:35:21.962Z,146.20
2018-02-09T05:37:48.213Z,149.17
2018-02-09T05:40:15.238Z,145.37
2018-02-09T05:42:42.226Z,148.57
2018-02-09T05:45:08.524Z,140.00
2018-02-09T05:47:34.810Z,137.87
2018-02-09T05:50:01.811Z,135.10
2018-02-09T05:52:28.186Z,150.30
2018-02-09T05:54:54.453Z,146.30
2018-02-09T05:57:20.771Z,158.27
2018-02-09T05:59:47.036Z,139.27
2018-02-09T06:02:13.332Z,144.80
2018-02-09T06:04:39.620Z,139.60
2018-02-09T06:07:05.882Z,145.10
2018-02-09T06:09:32.172Z,127.53
2018-02-09T06:11:59.219Z,123.90
2018-02-09T06:14:25.490Z,145.23
2018-02-09T06:16:51.870Z,139.23
2018-02-09T06:19:18.178Z,145.57
2018-02-09T06:21:44.442Z,144.53
2018-02-09T06:24:12.193Z,139.40
2018-02-09T06:26:39.317Z,144.03
2018-02-09T06:29:05.649Z,151.37
2018-02-09T06:31:31.943Z,141.50
2018-02-09T06:33:58.254Z,136.33
2018-02-09T06:36:24.576Z,135.63
2018-02-09T06:38:50.913Z,170.53
2018-02-09T06:41:17.930Z,153.07
2018-02-09T06:43:44.329Z,129.20
2018-02-09T06:46:10.607Z,138.03
2018-02-09T06:48:36.890Z,134.23
2018-02-09T06:51:03.197Z,128.67
2018-02-09T06:53:29.487Z,143.17
2018-02-09T06:55:55.795Z,136.40
2018-02-09T06:58:22.066Z,134.30
2018-02-09T07:00:49.245Z,142.37
2018-02-09T07:03:15.594Z,137.03
2018-02-09T07:05:41.966Z,137.93
2018-02-09T07:08:08.259Z,164.10
2018-02-09T07:10:34.522Z,224.63
2018-02-09T07:13:00.810Z,159.90
2018-02-09T07:15:27.110Z,171.77
2018-02-09T07:17:53.362Z,158.20
2018-02-09T07:20:19.708Z,156.93
2018-02-09T07:22:45.974Z,149.90
2018-02-09T07:25:12.248Z,155.23
2018-02-09T07:27:39.332Z,149.90
2018-02-09T07:30:06.399Z,147.70
2018-02-09T07:32:34.273Z,146.00
2018-02-09T07:35:01.752Z,145.13
2018-02-09T07:37:28.459Z,142.27
2018-02-09T07:39:54.806Z,142.97
2018-02-09T07:42:31.006Z,137.03
2018-02-09T07:45:05.965Z,137.70
2018-02-09T07:47:43.933Z,140.73
2018-02-09T07:50:17.846Z,149.23
2018-02-09T07:52:55.066Z,135.87
2018-02-09T07:55:21.746Z,145.73
2018-02-09T07:57:48.047Z,152.67
2018-02-09T08:00:14.349Z,143.07
2018-02-09T08:02:40.839Z,141.23
2018-02-09T08:05:07.864Z,138.80
2018-02-09T08:07:34.902Z,156.60
2018-02-09T08:10:09.970Z,135.37
2018-02-09T08:12:45.345Z,145.63
2018-02-09T08:15:25.729Z,146.40
2018-02-09T08:18:05.640Z,132.90
2018-02-09T08:20:43.256Z,144.53
2018-02-09T08:23:21.565Z,149.33
2018-02-09T08:25:58.751Z,156.13
2018-02-09T08:28:38.636Z,153.97
2018-02-09T08:31:16.691Z,153.43
2018-02-09T08:33:55.331Z,143.83
2018-02-09T08:36:34.574Z,137.97
2018-02-09T08:39:13.628Z,132.00
2018-02-09T08:41:53.995Z,132.50
2018-02-09T08:44:32.180Z,130.67
2018-02-09T08:47:11.456Z,158.03
2018-02-09T08:49:51.294Z,127.80
2018-02-09T08:52:26.986Z,125.57
2018-02-09T08:55:06.180Z,145.73
2018-02-09T08:57:45.913Z,147.37
2018-02-09T09:00:25.114Z,143.63
2018-02-09T09:03:04.465Z,119.27
2018-02-09T09:05:41.359Z,139.57
2018-02-09T09:11:00.856Z,138.27
2018-02-09T09:13:36.634Z,132.10
2018-02-09T09:16:15.148Z,139.63
2018-02-09T09:18:53.192Z,145.10
2018-02-09T09:21:35.124Z,134.87
2018-02-09T09:24:14.614Z,133.73
2018-02-09T09:26:53.622Z,280.80
2018-02-09T09:29:31.630Z,143.70
2018-02-09T09:32:10.013Z,134.63
2018-02-09T09:34:48.044Z,149.63
2018-02-09T09:37:28.301Z,137.83
2018-02-09T09:42:47.335Z,144.30
2018-02-09T09:45:25.355Z,147.87
2018-02-09T09:48:04.608Z,148.37
2018-02-09T09:50:40.656Z,160.43
2018-02-09T09:55:59.816Z,126.30
2018-02-09T09:58:37.318Z,146.33
2018-02-09T10:01:10.375Z,147.17
2018-02-09T10:03:36.732Z,165.97
2018-02-09T10:06:02.973Z,173.10
2018-02-09T10:08:29.769Z,160.13
2018-02-09T10:10:57.304Z,153.60
2018-02-09T10:13:24.610Z,147.43
2018-02-09T10:15:51.458Z,132.33
2018-02-09T10:18:18.663Z,156.70
2018-02-09T10:20:45.083Z,138.73
2018-02-09T10:23:11.703Z,159.43
2018-02-09T10:25:38.439Z,154.63
2018-02-09T10:28:05.006Z,134.93
2018-02-09T10:30:32.405Z,141.87
2018-02-09T10:32:59.998Z,148.37
2018-02-09T10:35:27.218Z,164.73
2018-02-09T10:37:53.578Z,157.57
2018-02-09T10:40:21.131Z,144.43
2018-02-09T10:42:47.422Z,152.37
2018-02-09T10:45:14.455Z,171.93
2018-02-09T10:47:41.481Z,132.43
2018-02-09T10:50:18.588Z,131.60
2018-02-09T10:52:44.916Z,136.50
2018-02-09T10:55:11.212Z,180.93
2018-02-09T10:57:37.504Z,223.70
2018-02-09T11:00:04.606Z,145.20
2018-02-09T11:02:30.869Z,182.20
2018-02-09T11:04:57.163Z,137.20
2018-02-09T11:07:24.240Z,166.00
2018-02-09T11:09:50.622Z,146.97
2018-02-09T11:12:20.487Z,157.37
2018-02-09T11:14:46.819Z,133.97
2018-02-09T11:17:14.975Z,123.83
2018-02-09T11:19:41.282Z,118.77
2018-02-09T11:22:08.835Z,122.83
2018-02-09T11:24:35.128Z,128.13
2018-02-09T11:27:01.402Z,138.47
2018-02-09T11:29:27.703Z,111.27
2018-02-09T11:31:54.752Z,126.40
2018-02-09T11:34:21.078Z,130.57
2018-02-09T11:36:47.366Z,137.30
2018-02-09T11:39:14.379Z,135.00
2018-02-09T11:41:40.672Z,126.87
2018-02-09T11:44:06.943Z,137.27
2018-02-09T11:46:33.252Z,129.80
2018-02-09T11:49:00.263Z,116.43
2018-02-09T11:51:26.559Z,142.40
2018-02-09T11:53:52.871Z,122.37
2018-02-09T11:56:19.142Z,126.93
2018-02-09T11:58:45.451Z,113.47
2018-02-09T12:01:11.733Z,113.77
2018-02-09T12:03:37.993Z,122.53
2018-02-09T12:06:04.297Z,101.53
2018-02-09T12:08:30.579Z,120.40
2018-02-09T12:10:56.871Z,116.60
2018-02-09T12:13:23.144Z,115.63
2018-02-09T12:15:49.421Z,105.30
2018-02-09T12:18:15.718Z,105.07
2018-02-09T12:20:42.014Z,115.43
2018-02-09T12:23:08.309Z,108.20
2018-02-09T12:25:34.594Z,105.23
2018-02-09T12:28:01.607Z,108.20
2018-02-09T12:30:27.888Z,112.23
2018-02-09T12:32:54.177Z,108.00
2018-02-09T12:35:20.498Z,94.87
2018-02-09T12:37:46.787Z,104.27
2018-02-09T12:40:13.815Z,110.87
2018-02-09T12:42:40.198Z,87.40
2018-02-09T12:45:06.462Z,118.10
2018-02-09T12:47:33.503Z,104.60
2018-02-09T12:50:00.519Z,109.60
2018-02-09T12:52:27.522Z,94.80
2018-02-09T12:54:53.814Z,100.93
2018-02-09T12:57:20.092Z,144.00
2018-02-09T12:59:47.174Z,120.97
2018-02-09T13:02:13.457Z,168.20
2018-02-09T13:04:39.782Z,191.80
2018-02-09T13:07:06.833Z,130.67
2018-02-09T13:09:33.091Z,145.93
2018-02-09T13:11:59.386Z,116.00
2018-02-09T13:14:37.903Z,131.87
2018-02-09T13:17:05.265Z,119.80
2018-02-09T13:19:31.546Z,123.33
2018-02-09T13:21:57.886Z,111.93
2018-02-09T13:24:24.980Z,108.50
2018-02-09T13:26:51.255Z,105.97
2018-02-09T13:29:17.570Z,109.80
2018-02-09T13:31:43.851Z,121.47
2018-02-09T13:34:10.279Z,126.90
2018-02-09T13:39:53.236Z,126.50
2018-02-09T13:42:20.263Z,108.13
2018-02-09T13:44:46.554Z,104.20
2018-02-09T13:47:12.870Z,106.70
2018-02-09T13:49:39.135Z,124.30
2018-02-09T13:52:05.444Z,137.40
2018-02-09T13:54:31.758Z,146.27
2018-02-09T13:56:58.853Z,144.20
2018-02-09T13:59:25.163Z,133.37
2018-02-09T14:01:51.519Z,119.17
2018-02-09T14:04:17.782Z,120.87
2018-02-09T14:06:44.806Z,117.27
2018-02-09T14:09:11.085Z,125.93
2018-02-09T14:11:37.414Z,121.13
2018-02-09T14:14:03.670Z,120.03
2018-02-09T14:16:30.703Z,140.17
2018-02-09T14:18:57.743Z,122.57
2018-02-09T14:21:24.044Z,122.53
2018-02-09T14:23:51.093Z,136.33
2018-02-09T14:26:17.373Z,119.50
2018-02-09T14:28:43.662Z,165.83
2018-02-09T14:31:09.931Z,144.27
2018-02-09T14:33:36.954Z,124.23
2018-02-09T14:36:04.011Z,130.80
2018-02-09T14:38:30.325Z,127.67
2018-02-09T14:40:56.638Z,118.27
2018-02-09T14:43:22.911Z,123.67
2018-02-09T14:45:49.217Z,120.67
2018-02-09T14:48:19.519Z,138.67
2018-02-09T14:50:45.790Z,132.30
2018-02-09T14:53:12.084Z,134.13
2018-02-09T14:55:39.095Z,116.57
2018-02-09T14:58:05.371Z,103.37
2018-02-09T15:00:31.666Z,126.57
2018-02-09T15:02:57.927Z,126.40
2018-02-09T15:05:24.222Z,128.50
2018-02-09T15:07:50.523Z,123.17
2018-02-09T15:10:16.786Z,125.40
2018-02-09T15:12:43.059Z,124.43
2018-02-09T15:15:09.351Z,120.20
2018-02-09T15:17:35.643Z,120.33
2018-02-09T15:20:01.957Z,119.40
2018-02-09T15:22:28.254Z,113.77
2018-02-09T15:24:54.537Z,117.53
2018-02-09T15:27:20.851Z,117.53
2018-02-09T15:29:47.139Z,125.07
2018-02-09T15:32:14.150Z,109.53
2018-02-09T15:34:40.456Z,128.40
2018-02-09T15:37:06.748Z,122.33
2018-02-09T15:39:33.073Z,130.57
2018-02-09T15:41:59.337Z,108.83
2018-02-09T15:44:25.615Z,118.50
2018-02-09T15:46:51.938Z,121.80
2018-02-09T15:49:18.232Z,125.17
2018-02-09T15:51:44.539Z,124.97
2018-02-09T15:54:10.812Z,115.10
2018-02-09T15:56:37.847Z,104.20
2018-02-09T15:59:04.134Z,103.73
2018-02-09T16:01:30.423Z,112.77
2018-02-09T16:03:56.706Z,103.63
2018-02-09T16:06:22.989Z,134.47
2018-02-09T16:08:50.004Z,124.27
2018-02-09T16:11:17.062Z,132.63
2018-02-09T16:13:44.134Z,118.17
2018-02-09T16:16:10.490Z,127.90
2018-02-09T16:18:36.811Z,129.10
2018-02-09T16:21:03.102Z,112.37
2018-02-09T16:23:29.400Z,118.07
2018-02-09T16:25:55.683Z,123.50
2018-02-09T16:28:22.726Z,114.60
2018-02-09T16:30:49.003Z,116.37
2018-02-09T16:33:15.290Z,120.60
2018-02-09T16:35:41.651Z,112.67
2018-02-09T16:38:08.671Z,114.30
2018-02-09T16:40:35.103Z,110.47
2018-02-09T16:43:02.188Z,176.50
2018-02-09T16:45:28.477Z,145.70
2018-02-09T16:47:54.747Z,130.43
2018-02-09T16:50:21.047Z,117.43
2018-02-09T16:52:47.349Z,111.50
2018-02-09T16:55:13.603Z,121.27
2018-02-09T16:57:39.898Z,114.73
2018-02-09T17:00:06.183Z,130.33
2018-02-09T17:02:32.469Z,122.93
2018-02-09T17:04:59.500Z,203.27
2018-02-09T17:07:26.536Z,227.83
2018-02-09T17:09:53.611Z,247.23
2018-02-09T17:12:19.879Z,181.27
2018-02-09T17:14:46.912Z,136.53
2018-02-09T17:17:13.957Z,118.70
2018-02-09T17:19:42.546Z,128.53
2018-02-09T17:22:08.845Z,160.53
2018-02-09T17:24:35.147Z,160.27
2018-02-09T17:27:02.154Z,113.43
2018-02-09T17:29:28.471Z,104.03
2018-02-09T17:31:55.510Z,126.03
2018-02-09T17:34:21.833Z,108.07
2018-02-09T17:36:49.386Z,103.60
2018-02-09T17:39:16.469Z,101.40
2018-02-09T17:41:42.790Z,107.33
2018-02-09T17:44:09.152Z,94.40
2018-02-09T17:46:36.194Z,103.77
2018-02-09T17:49:02.623Z,88.57
2018-02-09T17:51:28.908Z,98.33
2018-02-09T17:53:55.228Z,102.77
2018-02-09T17:56:22.262Z,114.07
2018-02-09T17:58:49.293Z,101.13
2018-02-09T18:01:16.512Z,95.43
2018-02-09T18:03:42.758Z,118.53
2018-02-09T18:06:09.103Z,112.27
2018-02-09T18:08:35.419Z,103.50
2018-02-09T18:11:01.698Z,100.30
2018-02-09T18:13:28.759Z,107.53
2018-02-09T18:15:55.095Z,109.67
2018-02-09T18:18:21.411Z,103.43
2018-02-09T18:20:47.743Z,104.03
2018-02-09T18:23:14.030Z,108.17
2018-02-09T18:25:40.367Z,86.67
2018-02-09T18:28:06.644Z,100.43
2018-02-09T18:30:32.913Z,102.90
2018-02-09T18:32:59.229Z,89.23
2018-02-09T18:35:25.501Z,97.57
2018-02-09T18:37:51.770Z,86.73
2018-02-09T18:40:18.179Z,89.23
2018-02-09T18:42:44.502Z,95.40
2018-02-09T18:45:10.793Z,95.40
2018-02-09T18:47:37.067Z,94.70
2018-02-09T18:50:03.361Z,95.97
2018-02-09T18:52:30.408Z,111.33
2018-02-09T18:54:56.686Z,104.40
2018-02-09T18:57:22.983Z,108.10
2018-02-09T18:59:49.255Z,96.67
2018-02-09T19:02:15.506Z,111.27
2018-02-09T19:04:41.853Z,98.73
2018-02-09T19:07:08.192Z,96.27
2018-02-09T19:09:34.482Z,110.40
2018-02-09T19:12:00.772Z,110.50
2018-02-09T19:14:27.036Z,99.63
2018-02-09T19:16:54.122Z,124.80
2018-02-09T19:19:20.407Z,135.23
2018-02-09T19:21:46.716Z,172.40
2018-02-09T19:24:13.036Z,163.97
2018-02-09T19:26:39.368Z,149.87
2018-02-09T19:29:05.645Z,179.00
2018-02-09T19:31:32.672Z,159.63
2018-02-09T19:33:58.969Z,127.17
2018-02-09T19:36:26.289Z,110.50
2018-02-09T19:38:52.574Z,198.10
2018-02-09T19:41:18.863Z,125.40
2018-02-09T19:43:45.898Z,174.47
2018-02-09T19:46:12.981Z,198.30
2018-02-09T19:48:39.280Z,192.20
2018-02-09T19:51:05.558Z,256.97
2018-02-09T19:53:32.598Z,137.87
2018-02-09T19:55:59.615Z,218.60
2018-02-09T19:58:25.922Z,182.67
2018-02-09T20:00:52.250Z,145.80
2018-02-09T20:03:19.254Z,152.73
2018-02-09T20:05:45.572Z,150.47
2018-02-09T20:08:11.890Z,112.73
2018-02-09T20:10:38.190Z,120.10
2018-02-09T20:13:04.457Z,119.30
2018-02-09T20:15:31.459Z,131.03
2018-02-09T20:17:57.763Z,144.27
2018-02-09T20:20:24.047Z,153.10
2018-02-09T20:22:50.350Z,102.47
2018-02-09T20:25:16.610Z,111.40
2018-02-09T20:27:42.875Z,97.33
2018-02-09T20:30:09.170Z,97.37
2018-02-09T20:32:37.227Z,102.30
2018-02-09T20:35:04.287Z,90.73
2018-02-09T20:37:30.634Z,105.47
2018-02-09T20:39:56.950Z,100.00
2018-02-09T20:42:23.244Z,100.53
2018-02-09T20:44:49.546Z,90.33
2018-02-09T20:47:15.835Z,98.13
2018-02-09T20:49:42.086Z,102.47
2018-02-09T20:52:08.363Z,99.57
2018-02-09T20:54:34.647Z,91.97
2018-02-09T20:57:00.913Z,87.80
2018-02-09T20:59:27.933Z,102.47
2018-02-09T21:01:54.941Z,95.80
2018-02-09T21:04:21.195Z,90.10
2018-02-09T21:06:48.214Z,113.37
2018-02-09T21:09:15.226Z,99.53
2018-02-09T21:11:41.522Z,90.40
2018-02-09T21:14:07.831Z,91.53
2018-02-09T21:16:34.102Z,92.30
2018-02-09T21:19:00.431Z,99.23
2018-02-09T21:21:26.718Z,91.23
2018-02-09T21:23:53.813Z,93.47
2018-02-09T21:26:20.058Z,95.57
2018-02-09T21:28:46.306Z,89.37
2018-02-09T21:31:12.590Z,77.60
2018-02-09T21:33:38.843Z,90.20
2018-02-09T21:36:05.137Z,93.23
2018-02-09T21:38:32.159Z,89.20
2018-02-09T21:40:59.166Z,92.93
2018-02-09T21:43:25.466Z,97.70
2018-02-09T21:45:51.775Z,87.37
2018-02-09T21:48:18.143Z,77.33
2018-02-09T21:50:44.383Z,76.23
2018-02-09T21:53:11.382Z,89.07
2018-02-09T21:55:37.682Z,87.97
2018-02-09T21:58:03.946Z,87.63
2018-02-09T22:00:30.257Z,73.23
2018-02-09T22:02:56.545Z,85.87
2018-02-09T22:05:22.807Z,91.67
2018-02-09T22:07:49.118Z,71.93
2018-02-09T22:10:15.406Z,70.67
2018-02-09T22:12:42.435Z,96.20
2018-02-09T22:15:09.726Z,89.03
2018-02-09T22:17:35.997Z,84.97
2018-02-09T22:20:02.282Z,79.00
2018-02-09T22:22:28.583Z,82.60
2018-02-09T22:24:54.854Z,81.63
2018-02-09T22:27:21.115Z,72.27
2018-02-09T22:29:47.414Z,70.20
2018-02-09T22:32:13.682Z,84.47
2018-02-09T22:34:40.713Z,82.70
2018-02-09T22:37:07.725Z,86.77
2018-02-09T22:39:34.006Z,76.93
2018-02-09T22:42:00.300Z,94.63
2018-02-09T22:44:26.568Z,77.90
2018-02-09T22:46:52.874Z,73.20
2018-02-09T22:49:19.149Z,95.43
2018-02-09T22:51:45.432Z,77.57
2018-02-09T22:54:12.488Z,76.27
2018-02-09T22:56:38.803Z,82.97
2018-02-09T22:59:05.102Z,81.00
2018-02-09T23:01:31.361Z,96.20
2018-02-09T23:03:57.613Z,75.20
2018-02-09T23:06:23.902Z,84.33
2018-02-09T23:08:50.174Z,89.80
2018-02-09T23:11:16.472Z,89.70
2018-02-09T23:13:43.500Z,94.27
2018-02-09T23:16:10.539Z,75.43
2018-02-09T23:18:37.582Z,94.73
2018-02-09T23:21:03.870Z,86.67
2018-02-09T23:23:30.911Z,80.53
2018-02-09T23:25:57.923Z,90.27
2018-02-09T23:28:24.202Z,93.50
2018-02-09T23:30:50.493Z,84.17
2018-02-09T23:33:16.764Z,118.67
2018-02-09T23:35:43.070Z,178.03
2018-02-09T23:38:09.353Z,137.20
2018-02-09T23:40:35.609Z,125.83
2018-02-09T23:43:01.908Z,141.80
2018-02-09T23:45:28.178Z,142.73
2018-02-09T23:47:54.496Z,147.87
2018-02-09T23:50:20.767Z,149.00
2018-02-09T23:52:47.045Z,133.87
2018-02-09T23:55:13.331Z,133.37
2018-02-09T23:57:40.338Z,115.33
